Terminal Aerodrome Forecast
Issued by NWS

Home | Current Version | Previous Version | Text Only | Print | Product List | Glossary On
Versions: 1 2 3 4 5 6 7 8 9 10 11 12 13 14
000
FTUS44 KLIX 030300 AAA
TAFMSY
TAF AMD
KMSY 030300Z 0303/0324 34020KT P6SM TSRA SCT028CB BKN060 BKN250
      TEMPO 0303/0304 01020G30KT 1SM +TSRA BKN025CB OVC050
     FM030500 VRB03KT P6SM SCT008 OVC050
     FM031400 08004KT P6SM SCT035 BKN110
      TEMPO 0316/0320 15020G30KT 1SM +TSRA BKN035CB=

USA.gov is the U.S. government's official web portal to all federal, state and local government web resources and services.